createdAt,value
2022-11-24T00:01:21.254Z,5.37
2022-11-24T00:03:56.298Z,4.37
2022-11-24T00:06:24.411Z,4.85
2022-11-24T00:08:52.669Z,5.75
2022-11-24T00:11:26.070Z,6.45
2022-11-24T00:13:54.354Z,4.87
2022-11-24T00:16:25.061Z,4.17
2022-11-24T00:18:54.982Z,4.70
2022-11-24T00:21:23.381Z,6.12
2022-11-24T00:23:51.575Z,6.68
2022-11-24T00:26:23.897Z,5.37
2022-11-24T00:28:54.093Z,4.50
2022-11-24T00:31:25.962Z,5.05
2022-11-24T00:33:56.458Z,4.25
2022-11-24T00:36:26.265Z,6.00
2022-11-24T00:38:55.740Z,7.35
2022-11-24T00:41:25.013Z,4.67
2022-11-24T00:43:52.895Z,5.87
2022-11-24T00:46:21.247Z,6.37
2022-11-24T00:48:48.826Z,4.10
2022-11-24T00:51:18.198Z,5.18
2022-11-24T00:53:46.435Z,4.50
2022-11-24T00:56:14.166Z,4.60
2022-11-24T00:58:41.949Z,4.60
2022-11-24T01:01:16.165Z,5.30
2022-11-24T01:03:43.917Z,5.68
2022-11-24T01:06:14.659Z,3.87
2022-11-24T01:08:42.480Z,5.87
2022-11-24T01:11:25.319Z,4.20
2022-11-24T01:13:58.590Z,5.40
2022-11-24T01:16:30.165Z,6.50
2022-11-24T01:18:58.518Z,5.57
2022-11-24T01:21:26.172Z,5.57
2022-11-24T01:23:53.557Z,5.15
2022-11-24T01:26:22.450Z,6.18
2022-11-24T01:28:54.791Z,5.47
2022-11-24T01:31:23.702Z,5.43
2022-11-24T01:33:51.388Z,4.78
2022-11-24T01:36:19.436Z,5.28
2022-11-24T01:38:47.188Z,5.07
2022-11-24T01:41:18.166Z,5.30
2022-11-24T01:43:46.309Z,8.37
2022-11-24T01:46:29.252Z,5.55
2022-11-24T01:49:26.973Z,4.60
2022-11-24T01:52:07.362Z,5.32
2022-11-24T01:54:43.779Z,5.55
2022-11-24T01:57:22.149Z,5.63
2022-11-24T01:59:52.956Z,6.25
2022-11-24T02:02:22.409Z,9.45
2022-11-24T02:04:51.454Z,6.80
2022-11-24T02:07:19.355Z,7.62
2022-11-24T02:09:54.925Z,5.03
2022-11-24T02:12:26.545Z,5.20
2022-11-24T02:14:55.950Z,5.70
2022-11-24T02:17:23.602Z,5.15
2022-11-24T02:20:06.054Z,5.57
2022-11-24T02:23:01.169Z,5.47
2022-11-24T02:25:41.318Z,6.85
2022-11-24T02:28:17.387Z,4.82
2022-11-24T02:30:45.816Z,6.85
2022-11-24T02:33:14.041Z,6.85
2022-11-24T02:35:41.607Z,4.27
2022-11-24T02:38:13.633Z,6.68
2022-11-24T02:40:44.610Z,4.72
2022-11-24T02:43:15.920Z,5.22
2022-11-24T02:45:43.663Z,4.78
2022-11-24T02:48:11.063Z,6.43
2022-11-24T02:50:38.389Z,5.55
2022-11-24T02:53:06.110Z,5.20
2022-11-24T02:55:33.453Z,4.53
2022-11-24T02:58:00.808Z,4.80
2022-11-24T03:00:28.442Z,5.07
2022-11-24T03:02:55.840Z,4.05
2022-11-24T03:05:23.448Z,4.45
2022-11-24T03:07:51.174Z,4.50
2022-11-24T03:10:18.619Z,5.78
2022-11-24T03:12:46.002Z,4.17
2022-11-24T03:15:13.715Z,4.35
2022-11-24T03:17:41.146Z,4.32
2022-11-24T03:20:09.361Z,4.22
2022-11-24T03:22:37.458Z,3.62
2022-11-24T03:25:05.154Z,4.20
2022-11-24T03:27:32.722Z,4.40
2022-11-24T03:30:00.426Z,3.97
2022-11-24T03:32:27.835Z,3.33
2022-11-24T03:34:55.365Z,3.47
2022-11-24T03:37:23.106Z,3.20
2022-11-24T03:39:50.533Z,3.10
2022-11-24T03:42:17.932Z,3.60
2022-11-24T03:44:45.582Z,2.55
2022-11-24T03:47:12.970Z,3.17
2022-11-24T03:49:41.559Z,3.27
2022-11-24T03:52:09.418Z,2.72
2022-11-24T03:54:36.837Z,3.97
2022-11-24T03:57:04.282Z,2.22
2022-11-24T03:59:31.959Z,3.78
2022-11-24T04:01:59.426Z,3.47
2022-11-24T04:04:27.152Z,3.40
2022-11-24T04:06:54.532Z,2.70
2022-11-24T04:09:21.934Z,3.30
2022-11-24T04:12:07.960Z,3.42
2022-11-24T04:14:35.627Z,2.77
2022-11-24T04:17:04.787Z,7.97
2022-11-24T04:19:32.159Z,5.47
2022-11-24T04:21:59.550Z,3.67
2022-11-24T04:24:27.197Z,4.55
2022-11-24T04:26:54.593Z,4.00
2022-11-24T04:29:22.034Z,4.95
2022-11-24T04:31:49.781Z,4.95
2022-11-24T04:34:17.281Z,5.05
2022-11-24T04:36:44.669Z,5.43
2022-11-24T04:39:24.845Z,3.03
2022-11-24T04:41:53.931Z,4.43
2022-11-24T04:44:21.773Z,3.45
2022-11-24T04:46:49.213Z,4.43
2022-11-24T04:49:17.015Z,4.72
2022-11-24T04:51:44.777Z,3.60
2022-11-24T04:54:13.454Z,3.28
2022-11-24T04:56:41.796Z,4.80
2022-11-24T04:59:14.968Z,4.22
2022-11-24T05:01:43.840Z,5.07
2022-11-24T05:04:13.275Z,4.10
2022-11-24T05:06:41.190Z,3.72
2022-11-24T05:09:09.035Z,5.03
2022-11-24T05:11:36.655Z,3.53
2022-11-24T05:14:04.077Z,5.00
2022-11-24T05:16:31.597Z,3.93
2022-11-24T05:18:59.445Z,4.22
2022-11-24T05:21:27.946Z,4.45
2022-11-24T05:23:55.456Z,3.78
2022-11-24T05:26:23.131Z,6.93
2022-11-24T05:28:50.581Z,4.30
2022-11-24T05:31:18.112Z,4.82
2022-11-24T05:33:46.051Z,5.60
2022-11-24T05:36:33.446Z,5.22
2022-11-24T05:39:01.272Z,10.77
2022-11-24T05:41:28.818Z,8.13
2022-11-24T05:43:56.172Z,6.55
2022-11-24T05:46:23.867Z,5.32
2022-11-24T05:48:51.277Z,4.22
2022-11-24T05:51:18.712Z,4.95
2022-11-24T05:53:46.396Z,5.20
2022-11-24T05:56:13.814Z,5.05
2022-11-24T05:58:42.966Z,6.95
2022-11-24T06:01:10.953Z,9.23
2022-11-24T06:03:38.650Z,7.57
2022-11-24T06:06:06.232Z,6.40
2022-11-24T06:08:34.413Z,8.02
2022-11-24T06:11:17.595Z,5.05
2022-11-24T06:13:46.086Z,6.35
2022-11-24T06:16:14.974Z,6.25
2022-11-24T06:18:42.590Z,7.97
2022-11-24T06:21:11.557Z,11.15
2022-11-24T06:23:40.723Z,13.77
2022-11-24T06:26:09.216Z,14.38
2022-11-24T06:28:36.657Z,11.43
2022-11-24T06:31:05.562Z,8.23
2022-11-24T06:33:34.306Z,9.20
2022-11-24T06:36:04.728Z,10.25
2022-11-24T06:38:32.854Z,11.52
2022-11-24T06:41:26.721Z,11.93
2022-11-24T06:43:54.643Z,11.10
2022-11-24T06:46:22.682Z,18.27
2022-11-24T06:48:53.138Z,10.77
2022-11-24T06:51:20.828Z,11.05
2022-11-24T06:53:48.246Z,10.98
2022-11-24T06:56:19.373Z,11.03
2022-11-24T06:58:49.991Z,11.18
2022-11-24T07:01:18.994Z,9.57
2022-11-24T07:03:48.245Z,7.75
2022-11-24T07:06:16.668Z,9.27
2022-11-24T07:08:44.515Z,8.43
2022-11-24T07:11:15.761Z,8.13
2022-11-24T07:13:44.122Z,8.57
2022-11-24T07:16:16.753Z,8.68
2022-11-24T07:18:45.695Z,12.75
2022-11-24T07:21:13.747Z,9.57
2022-11-24T07:23:41.837Z,8.82
2022-11-24T07:26:10.521Z,9.18
2022-11-24T07:28:38.254Z,7.12
2022-11-24T07:31:07.655Z,9.18
2022-11-24T07:33:35.662Z,9.63
2022-11-24T07:36:05.163Z,9.00
2022-11-24T07:38:33.209Z,7.60
2022-11-24T07:41:09.673Z,9.75
2022-11-24T07:43:38.534Z,9.23
2022-11-24T07:46:08.127Z,9.20
2022-11-24T07:48:35.687Z,10.73
2022-11-24T07:51:05.016Z,9.02
2022-11-24T07:53:33.664Z,11.07
2022-11-24T07:56:03.352Z,10.65
2022-11-24T07:58:33.695Z,7.93
2022-11-24T08:01:10.705Z,10.27
2022-11-24T08:03:38.801Z,7.43
2022-11-24T08:08:55.140Z,8.15
2022-11-24T08:11:23.009Z,7.60
2022-11-24T08:13:50.506Z,8.77
2022-11-24T08:16:19.721Z,11.50
2022-11-24T08:18:55.050Z,9.85
2022-11-24T08:21:23.875Z,10.93
2022-11-24T08:23:56.123Z,9.73
2022-11-24T08:26:25.437Z,8.32
2022-11-24T08:28:55.482Z,10.13
2022-11-24T08:31:22.927Z,7.87
2022-11-24T08:33:50.891Z,8.65
2022-11-24T08:36:19.427Z,7.73
2022-11-24T08:38:48.945Z,8.43
2022-11-24T08:41:17.822Z,6.85
2022-11-24T08:43:45.297Z,6.45
2022-11-24T08:46:17.177Z,8.93
2022-11-24T08:48:52.154Z,3.97
2022-11-24T08:51:22.897Z,7.22
2022-11-24T08:53:58.492Z,7.25
2022-11-24T08:56:27.551Z,7.60
2022-11-24T08:58:56.267Z,6.97
2022-11-24T09:01:25.043Z,7.30
2022-11-24T09:03:53.938Z,4.82
2022-11-24T09:06:25.128Z,6.80
2022-11-24T09:08:54.663Z,7.37
2022-11-24T09:11:23.155Z,6.00
2022-11-24T09:13:50.614Z,9.23
2022-11-24T09:16:21.163Z,6.70
2022-11-24T09:18:55.014Z,5.87
2022-11-24T09:21:23.043Z,5.80
2022-11-24T09:23:52.599Z,6.03
2022-11-24T09:26:31.747Z,8.67
2022-11-24T09:29:01.642Z,5.68
2022-11-24T09:31:34.608Z,4.70
2022-11-24T09:34:07.233Z,4.18
2022-11-24T09:36:35.542Z,6.78
2022-11-24T09:39:03.830Z,5.77
2022-11-24T09:41:37.240Z,5.95
2022-11-24T09:44:04.838Z,4.28
2022-11-24T09:47:11.123Z,5.50
2022-11-24T09:49:49.842Z,5.40
2022-11-24T09:52:34.646Z,4.10
2022-11-24T09:55:05.217Z,6.53
2022-11-24T09:57:37.634Z,5.47
2022-11-24T10:00:12.725Z,6.70
2022-11-24T10:02:40.557Z,5.32
2022-11-24T10:05:08.469Z,6.53
2022-11-24T10:08:02.547Z,5.10
2022-11-24T10:10:44.401Z,3.83
2022-11-24T10:13:46.755Z,5.87
2022-11-24T10:16:40.343Z,4.95
2022-11-24T10:19:22.018Z,4.13
2022-11-24T10:21:52.464Z,6.05
2022-11-24T10:24:47.294Z,4.72
2022-11-24T10:27:39.243Z,8.40
2022-11-24T10:30:22.100Z,6.03
2022-11-24T10:32:57.078Z,5.20
2022-11-24T10:35:37.684Z,4.78
2022-11-24T10:38:25.280Z,5.00
2022-11-24T10:40:58.943Z,5.30
2022-11-24T10:43:28.523Z,4.93
2022-11-24T10:46:29.557Z,3.73
2022-11-24T10:49:03.907Z,3.55
2022-11-24T10:51:37.066Z,5.00
2022-11-24T10:54:17.523Z,3.80
2022-11-24T10:56:47.400Z,3.45
2022-11-24T10:59:26.867Z,3.17
2022-11-24T11:01:55.105Z,4.12
2022-11-24T11:04:31.029Z,3.47
2022-11-24T11:07:21.265Z,3.83
2022-11-24T11:09:49.622Z,3.00
2022-11-24T11:12:45.211Z,3.07
2022-11-24T11:15:30.597Z,3.10
2022-11-24T11:18:01.881Z,3.70
2022-11-24T11:20:31.551Z,3.22
2022-11-24T11:23:03.310Z,2.65
2022-11-24T11:25:36.249Z,2.60
2022-11-24T11:28:22.268Z,2.50
2022-11-24T11:31:18.003Z,3.67
2022-11-24T11:34:08.361Z,3.35
2022-11-24T11:36:45.249Z,3.03
2022-11-24T11:39:23.439Z,2.37
2022-11-24T11:42:45.229Z,3.25
2022-11-24T11:45:14.134Z,2.20
2022-11-24T11:47:56.663Z,2.33
2022-11-24T11:50:30.711Z,3.28
2022-11-24T11:53:27.557Z,2.60
2022-11-24T11:56:10.119Z,1.87
2022-11-24T11:58:46.981Z,1.55
2022-11-24T12:01:38.278Z,2.17
2022-11-24T12:04:21.160Z,1.77
2022-11-24T12:06:57.634Z,2.63
2022-11-24T12:09:41.547Z,1.98
2022-11-24T12:12:45.582Z,2.15
2022-11-24T12:15:31.878Z,1.80
2022-11-24T12:18:55.152Z,1.87
2022-11-24T12:21:26.047Z,2.67
2022-11-24T12:24:18.263Z,2.37
2022-11-24T12:27:03.291Z,2.05
2022-11-24T12:29:39.464Z,3.47
2022-11-24T12:32:44.012Z,1.90
2022-11-24T12:35:14.656Z,2.13
2022-11-24T12:38:03.733Z,2.45
2022-11-24T12:40:55.257Z,1.70
2022-11-24T12:43:40.010Z,2.20
2022-11-24T12:46:29.376Z,2.58
2022-11-24T12:49:20.624Z,3.60
2022-11-24T12:51:56.153Z,3.60
2022-11-24T12:54:25.830Z,2.12
2022-11-24T12:57:02.438Z,6.72
2022-11-24T12:59:48.200Z,1.92
2022-11-24T13:02:53.279Z,1.90
2022-11-24T13:05:32.872Z,1.98
2022-11-24T13:08:02.927Z,2.22
2022-11-24T13:10:56.146Z,5.75
2022-11-24T13:13:28.099Z,7.22
2022-11-24T13:19:00.748Z,2.65
2022-11-24T13:21:31.244Z,2.37
2022-11-24T13:24:04.903Z,4.18
2022-11-24T13:27:11.600Z,2.75
2022-11-24T13:29:40.247Z,2.10
2022-11-24T13:32:21.018Z,2.22
2022-11-24T13:34:55.089Z,1.75
2022-11-24T13:37:26.314Z,3.17
2022-11-24T13:40:30.016Z,1.35
2022-11-24T13:42:57.826Z,1.50
2022-11-24T13:45:45.190Z,1.77
2022-11-24T13:48:18.823Z,2.25
2022-11-24T13:50:56.191Z,1.77
2022-11-24T13:53:47.318Z,2.25
2022-11-24T13:56:17.520Z,2.17
2022-11-24T13:58:48.712Z,1.40
2022-11-24T14:01:33.944Z,2.47
2022-11-24T14:04:31.861Z,1.73
2022-11-24T14:07:12.297Z,1.40
2022-11-24T14:09:48.110Z,1.77
2022-11-24T14:12:24.404Z,2.85
2022-11-24T14:14:57.157Z,1.30
2022-11-24T14:17:28.112Z,1.42
2022-11-24T14:19:57.563Z,4.00
2022-11-24T14:22:41.345Z,3.77
2022-11-24T14:25:30.123Z,1.30
2022-11-24T14:28:00.461Z,1.95
2022-11-24T14:30:28.523Z,1.45
2022-11-24T14:32:56.422Z,2.25
2022-11-24T14:35:29.764Z,1.53
2022-11-24T14:37:58.002Z,2.08
2022-11-24T14:40:55.596Z,2.15
2022-11-24T14:43:29.157Z,1.27
2022-11-24T14:46:01.102Z,1.17
2022-11-24T14:48:37.034Z,1.30
2022-11-24T14:51:06.454Z,2.15
2022-11-24T14:53:35.003Z,1.05
2022-11-24T14:56:38.714Z,1.77
2022-11-24T14:59:24.110Z,1.37
2022-11-24T15:01:51.637Z,1.90
2022-11-24T15:04:46.723Z,2.33
2022-11-24T15:07:26.587Z,3.92
2022-11-24T15:10:00.255Z,2.15
2022-11-24T15:12:34.966Z,1.60
2022-11-24T15:15:07.182Z,0.90
2022-11-24T15:17:34.734Z,1.62
2022-11-24T15:20:17.091Z,2.50
2022-11-24T15:22:45.121Z,3.28
2022-11-24T15:25:27.869Z,1.10
2022-11-24T15:27:55.554Z,4.93
2022-11-24T15:30:23.395Z,2.87
2022-11-24T15:32:52.293Z,4.00
2022-11-24T15:35:21.688Z,1.00
2022-11-24T15:37:50.124Z,1.65
2022-11-24T15:40:18.403Z,1.50
2022-11-24T15:42:51.770Z,2.83
2022-11-24T15:45:20.771Z,2.75
2022-11-24T15:47:48.667Z,2.65
2022-11-24T15:50:16.677Z,5.53
2022-11-24T15:52:44.802Z,10.73
2022-11-24T15:55:21.253Z,13.75
2022-11-24T15:57:49.068Z,8.52
2022-11-24T16:00:19.326Z,11.35
2022-11-24T16:02:47.451Z,9.35
2022-11-24T16:05:16.373Z,14.57
2022-11-24T16:07:44.668Z,15.23
2022-11-24T16:10:34.968Z,10.20
2022-11-24T16:13:02.416Z,6.93
2022-11-24T16:15:30.482Z,8.38
2022-11-24T16:17:57.898Z,5.23
2022-11-24T16:20:25.378Z,6.72
2022-11-24T16:22:54.239Z,5.03
2022-11-24T16:25:21.749Z,6.20
2022-11-24T16:27:49.200Z,7.03
2022-11-24T16:30:17.102Z,6.23
2022-11-24T16:32:44.498Z,4.40
2022-11-24T16:35:11.965Z,5.90
2022-11-24T16:37:39.809Z,4.18
2022-11-24T16:40:07.840Z,3.05
2022-11-24T16:42:35.335Z,3.17
2022-11-24T16:45:03.380Z,7.00
2022-11-24T16:47:30.794Z,9.88
2022-11-24T16:49:58.354Z,9.80
2022-11-24T16:52:26.321Z,14.48
2022-11-24T16:54:53.761Z,9.40
2022-11-24T16:57:21.530Z,16.17
2022-11-24T16:59:49.219Z,8.18
2022-11-24T17:02:16.964Z,10.85
2022-11-24T17:04:45.426Z,31.87
2022-11-24T17:07:15.446Z,73.63
2022-11-24T17:09:43.104Z,48.50
2022-11-24T17:12:10.590Z,16.98
2022-11-24T17:14:38.410Z,16.70
2022-11-24T17:17:05.839Z,13.60
2022-11-24T17:19:33.269Z,16.13
2022-11-24T17:22:00.999Z,12.98
2022-11-24T17:24:28.577Z,9.60
2022-11-24T17:26:56.182Z,11.00
2022-11-24T17:29:24.511Z,7.80
2022-11-24T17:31:51.947Z,5.70
2022-11-24T17:34:19.520Z,4.12
2022-11-24T17:36:47.325Z,6.78
2022-11-24T17:39:15.301Z,6.55
2022-11-24T17:41:43.271Z,5.40
2022-11-24T17:44:12.662Z,4.50
2022-11-24T17:46:40.205Z,6.40
2022-11-24T17:49:08.548Z,3.12
2022-11-24T17:51:36.418Z,3.50
2022-11-24T17:54:31.134Z,6.50
2022-11-24T17:56:51.870Z,3.67
2022-11-24T17:59:19.252Z,4.90
2022-11-24T18:01:46.826Z,3.25
2022-11-24T18:04:14.624Z,6.40
2022-11-24T18:06:42.093Z,3.95
2022-11-24T18:09:09.560Z,2.87
2022-11-24T18:11:37.588Z,3.87
2022-11-24T18:14:05.113Z,3.70
2022-11-24T18:16:34.589Z,4.53
2022-11-24T18:19:09.160Z,2.90
2022-11-24T18:21:41.415Z,4.60
2022-11-24T18:24:11.247Z,7.18
2022-11-24T18:26:42.840Z,4.28
2022-11-24T18:29:11.571Z,3.67
2022-11-24T18:31:40.031Z,4.00
2022-11-24T18:34:08.223Z,4.67
2022-11-24T18:36:36.197Z,5.85
2022-11-24T18:39:06.154Z,6.87
2022-11-24T18:41:33.929Z,8.82
2022-11-24T18:44:03.168Z,6.37
2022-11-24T18:46:30.840Z,7.93
2022-11-24T18:48:58.977Z,10.10
2022-11-24T18:51:27.305Z,12.32
2022-11-24T18:53:54.949Z,13.00
2022-11-24T18:56:22.443Z,16.30
2022-11-24T18:58:54.855Z,15.00
2022-11-24T19:01:27.966Z,13.10
2022-11-24T19:03:58.385Z,11.93
2022-11-24T19:06:35.130Z,9.27
2022-11-24T19:09:15.255Z,10.77
2022-11-24T19:11:44.684Z,8.07
2022-11-24T19:14:15.274Z,13.62
2022-11-24T19:16:43.919Z,10.45
2022-11-24T19:19:12.784Z,10.98
2022-11-24T19:21:41.171Z,12.02
2022-11-24T19:24:18.949Z,8.93
2022-11-24T19:26:46.694Z,9.65
2022-11-24T19:29:14.135Z,8.80
2022-11-24T19:31:41.610Z,10.18
2022-11-24T19:34:10.081Z,7.20
2022-11-24T19:36:37.704Z,7.03
2022-11-24T19:39:05.634Z,8.10
2022-11-24T19:41:33.944Z,7.72
2022-11-24T19:44:02.804Z,8.75
2022-11-24T19:46:30.598Z,11.05
2022-11-24T19:49:02.383Z,9.37
2022-11-24T19:51:35.066Z,11.43
2022-11-24T19:54:04.862Z,9.25
2022-11-24T19:56:34.895Z,11.65
2022-11-24T19:59:05.011Z,11.68
2022-11-24T20:01:38.789Z,11.03
2022-11-24T20:04:09.353Z,10.57
2022-11-24T20:06:39.363Z,11.40
2022-11-24T20:09:10.991Z,11.52
2022-11-24T20:11:39.546Z,8.75
2022-11-24T20:14:10.073Z,8.30
2022-11-24T20:16:37.805Z,9.77
2022-11-24T20:19:07.602Z,7.53
2022-11-24T20:21:37.234Z,11.77
2022-11-24T20:24:08.187Z,10.88
2022-11-24T20:26:45.200Z,10.50
2022-11-24T20:29:14.037Z,11.85
2022-11-24T20:31:45.682Z,11.48
2022-11-24T20:34:14.029Z,10.70
2022-11-24T20:36:44.374Z,15.10
2022-11-24T20:39:18.146Z,12.50
2022-11-24T20:41:45.954Z,15.63
2022-11-24T20:44:16.252Z,12.37
2022-11-24T20:46:45.744Z,15.30
2022-11-24T20:49:16.732Z,13.38
2022-11-24T20:51:46.949Z,11.30
2022-11-24T20:54:16.813Z,12.63
2022-11-24T20:56:46.540Z,14.05
2022-11-24T20:59:17.242Z,12.15
2022-11-24T21:01:46.830Z,13.35
2022-11-24T21:04:21.459Z,13.67
2022-11-24T21:06:49.439Z,16.12
2022-11-24T21:09:17.094Z,10.63
2022-11-24T21:11:45.119Z,9.95
2022-11-24T21:14:13.342Z,10.10
2022-11-24T21:16:42.383Z,10.37
2022-11-24T21:19:15.009Z,11.57
2022-11-24T21:21:43.282Z,9.25
2022-11-24T21:24:16.262Z,9.80
2022-11-24T21:26:47.572Z,9.60
2022-11-24T21:29:17.907Z,8.27
2022-11-24T21:31:45.720Z,9.07
2022-11-24T21:34:18.643Z,9.68
2022-11-24T21:36:47.114Z,9.70
2022-11-24T21:39:15.776Z,8.50
2022-11-24T21:41:43.438Z,6.23
2022-11-24T21:44:13.074Z,8.00
2022-11-24T21:46:46.162Z,6.70
2022-11-24T21:49:17.215Z,7.35
2022-11-24T21:51:44.744Z,5.72
2022-11-24T21:54:12.184Z,5.27
2022-11-24T21:56:39.870Z,5.30
2022-11-24T21:59:07.549Z,5.97
2022-11-24T22:01:35.069Z,6.18
2022-11-24T22:04:02.897Z,4.28
2022-11-24T22:06:32.099Z,5.00
2022-11-24T22:08:59.485Z,5.35
2022-11-24T22:11:27.202Z,5.62
2022-11-24T22:13:54.631Z,6.03
2022-11-24T22:16:24.602Z,6.00
2022-11-24T22:18:52.647Z,8.20
2022-11-24T22:21:24.179Z,5.22
2022-11-24T22:23:55.113Z,5.00
2022-11-24T22:26:24.287Z,4.87
2022-11-24T22:28:53.339Z,7.25
2022-11-24T22:31:26.501Z,5.17
2022-11-24T22:33:55.930Z,5.35
2022-11-24T22:36:25.760Z,3.90
2022-11-24T22:38:55.095Z,3.65
2022-11-24T22:41:23.238Z,5.03
2022-11-24T22:43:50.683Z,4.97
2022-11-24T22:46:24.057Z,5.75
2022-11-24T22:48:53.377Z,5.40
2022-11-24T22:51:24.634Z,5.10
2022-11-24T22:53:55.550Z,4.68
2022-11-24T22:56:23.866Z,5.43
2022-11-24T22:58:51.683Z,5.85
2022-11-24T23:01:24.318Z,5.70
2022-11-24T23:03:54.682Z,3.87
2022-11-24T23:06:24.526Z,5.97
2022-11-24T23:08:53.019Z,5.57
2022-11-24T23:11:32.743Z,10.30
2022-11-24T23:14:05.226Z,7.45
2022-11-24T23:16:32.721Z,5.72
2022-11-24T23:19:00.198Z,5.07
2022-11-24T23:21:30.479Z,6.07
2022-11-24T23:24:02.244Z,3.35
2022-11-24T23:26:33.356Z,5.32
2022-11-24T23:29:01.377Z,5.12
2022-11-24T23:31:29.273Z,4.57
2022-11-24T23:34:02.862Z,6.07
2022-11-24T23:36:31.254Z,5.00
2022-11-24T23:39:04.793Z,5.43
2022-11-24T23:41:32.283Z,9.35
2022-11-24T23:44:00.204Z,6.25
2022-11-24T23:46:28.153Z,6.40
2022-11-24T23:48:56.862Z,5.30
2022-11-24T23:51:24.544Z,5.40
2022-11-24T23:53:52.581Z,5.75
2022-11-24T23:56:28.099Z,3.75
2022-11-24T23:58:55.858Z,4.90
